sensor_id;sensor_type;location;lat;lon;timestamp;pressure;altitude;pressure_sealevel;temperature;humidity
71165;BME280;58859;55.132;-1.586;2023-07-20T00:01:34;101177.03;;;20.95;100.00
71165;BME280;58859;55.132;-1.586;2023-07-20T00:04:00;101170.66;;;20.37;100.00
71165;BME280;58859;55.132;-1.586;2023-07-20T00:06:25;101177.31;;;20.27;100.00
71165;BME280;58859;55.132;-1.586;2023-07-20T00:08:55;101165.84;;;20.80;100.00
71165;BME280;58859;55.132;-1.586;2023-07-20T00:11:25;101166.44;;;20.95;100.00
71165;BME280;58859;55.132;-1.586;2023-07-20T00:13:50;101169.06;;;20.56;100.00
71165;BME280;58859;55.132;-1.586;2023-07-20T00:16:16;101163.38;;;20.66;100.00
71165;BME280;58859;55.132;-1.586;2023-07-20T00:18:41;101165.84;;;20.74;100.00
71165;BME280;58859;55.132;-1.586;2023-07-20T00:21:06;101168.69;;;20.05;100.00
71165;BME280;58859;55.132;-1.586;2023-07-20T00:23:32;101157.69;;;20.49;100.00
71165;BME280;58859;55.132;-1.586;2023-07-20T00:25:57;101160.56;;;20.74;100.00
71165;BME280;58859;55.132;-1.586;2023-07-20T00:28:22;101160.72;;;20.59;100.00
71165;BME280;58859;55.132;-1.586;2023-07-20T00:30:48;101156.81;;;20.29;100.00
71165;BME280;58859;55.132;-1.586;2023-07-20T00:33:16;101154.03;;;20.76;100.00
71165;BME280;58859;55.132;-1.586;2023-07-20T00:35:42;101149.97;;;21.39;100.00
71165;BME280;58859;55.132;-1.586;2023-07-20T00:38:07;101147.13;;;20.82;100.00
71165;BME280;58859;55.132;-1.586;2023-07-20T00:40:36;101145.44;;;19.81;100.00
71165;BME280;58859;55.132;-1.586;2023-07-20T00:43:02;101151.78;;;20.73;100.00
71165;BME280;58859;55.132;-1.586;2023-07-20T00:45:29;101145.91;;;20.84;100.00
71165;BME280;58859;55.132;-1.586;2023-07-20T00:47:54;101145.47;;;19.53;100.00
71165;BME280;58859;55.132;-1.586;2023-07-20T00:50:20;101150.44;;;20.17;100.00
71165;BME280;58859;55.132;-1.586;2023-07-20T00:52:46;101153.06;;;20.03;100.00
71165;BME280;58859;55.132;-1.586;2023-07-20T00:55:11;101138.34;;;20.48;100.00
71165;BME280;58859;55.132;-1.586;2023-07-20T00:57:36;101147.34;;;19.59;100.00
71165;BME280;58859;55.132;-1.586;2023-07-20T01:00:02;101144.25;;;20.63;100.00
71165;BME280;58859;55.132;-1.586;2023-07-20T01:02:28;101142.69;;;21.08;100.00
71165;BME280;58859;55.132;-1.586;2023-07-20T01:04:53;101134.31;;;20.59;100.00
71165;BME280;58859;55.132;-1.586;2023-07-20T01:12:33;101138.56;;;19.18;100.00
71165;BME280;58859;55.132;-1.586;2023-07-20T01:15:00;101135.16;;;18.54;100.00
71165;BME280;58859;55.132;-1.586;2023-07-20T01:17:26;101136.59;;;18.56;100.00
71165;BME280;58859;55.132;-1.586;2023-07-20T01:19:51;101135.94;;;17.97;100.00
71165;BME280;58859;55.132;-1.586;2023-07-20T01:31:23;101132.91;;;18.72;100.00
71165;BME280;58859;55.132;-1.586;2023-07-20T01:33:50;101127.09;;;19.04;100.00
71165;BME280;58859;55.132;-1.586;2023-07-20T01:36:18;101124.78;;;19.97;100.00
71165;BME280;58859;55.132;-1.586;2023-07-20T01:38:44;101129.34;;;19.76;100.00
71165;BME280;58859;55.132;-1.586;2023-07-20T01:41:11;101123.09;;;19.15;100.00
71165;BME280;58859;55.132;-1.586;2023-07-20T01:43:36;101123.56;;;18.48;100.00
71165;BME280;58859;55.132;-1.586;2023-07-20T01:46:02;101132.41;;;19.11;100.00
71165;BME280;58859;55.132;-1.586;2023-07-20T01:48:27;101130.56;;;18.83;100.00
71165;BME280;58859;55.132;-1.586;2023-07-20T01:50:53;101125.97;;;17.34;100.00
71165;BME280;58859;55.132;-1.586;2023-07-20T01:53:20;101121.38;;;17.65;100.00
71165;BME280;58859;55.132;-1.586;2023-07-20T01:55:45;101127.25;;;17.38;100.00
71165;BME280;58859;55.132;-1.586;2023-07-20T01:58:11;101127.06;;;17.40;100.00
71165;BME280;58859;55.132;-1.586;2023-07-20T02:00:37;101121.88;;;17.02;100.00
71165;BME280;58859;55.132;-1.586;2023-07-20T02:03:03;101106.78;;;18.13;100.00
71165;BME280;58859;55.132;-1.586;2023-07-20T02:05:28;101121.75;;;16.96;100.00
71165;BME280;58859;55.132;-1.586;2023-07-20T02:07:54;101122.91;;;17.45;100.00
71165;BME280;58859;55.132;-1.586;2023-07-20T02:10:19;101121.31;;;18.66;100.00
71165;BME280;58859;55.132;-1.586;2023-07-20T02:12:45;101120.91;;;17.47;100.00
71165;BME280;58859;55.132;-1.586;2023-07-20T02:15:11;101112.47;;;17.22;100.00
71165;BME280;58859;55.132;-1.586;2023-07-20T02:17:38;101110.63;;;19.02;100.00
71165;BME280;58859;55.132;-1.586;2023-07-20T02:20:07;101108.53;;;17.56;100.00
71165;BME280;58859;55.132;-1.586;2023-07-20T02:22:34;101102.63;;;17.54;100.00
71165;BME280;58859;55.132;-1.586;2023-07-20T02:24:59;101089.84;;;18.01;100.00
71165;BME280;58859;55.132;-1.586;2023-07-20T02:27:25;101106.84;;;18.56;100.00
71165;BME280;58859;55.132;-1.586;2023-07-20T02:29:50;101108.66;;;19.38;100.00
71165;BME280;58859;55.132;-1.586;2023-07-20T02:32:15;101112.06;;;18.77;100.00
71165;BME280;58859;55.132;-1.586;2023-07-20T02:34:41;101107.03;;;18.82;100.00
71165;BME280;58859;55.132;-1.586;2023-07-20T02:37:07;101105.22;;;19.79;100.00
71165;BME280;58859;55.132;-1.586;2023-07-20T02:39:32;101097.69;;;19.76;100.00
71165;BME280;58859;55.132;-1.586;2023-07-20T02:41:57;101095.22;;;19.68;100.00
71165;BME280;58859;55.132;-1.586;2023-07-20T02:44:23;101103.72;;;20.24;100.00
71165;BME280;58859;55.132;-1.586;2023-07-20T02:46:49;101101.84;;;20.04;100.00
71165;BME280;58859;55.132;-1.586;2023-07-20T02:49:17;101093.09;;;19.97;100.00
71165;BME280;58859;55.132;-1.586;2023-07-20T02:51:42;101089.88;;;19.20;100.00
71165;BME280;58859;55.132;-1.586;2023-07-20T02:54:08;101093.13;;;20.24;100.00
71165;BME280;58859;55.132;-1.586;2023-07-20T02:56:33;101086.22;;;19.56;100.00
71165;BME280;58859;55.132;-1.586;2023-07-20T02:59:01;101102.00;;;19.83;100.00
71165;BME280;58859;55.132;-1.586;2023-07-20T03:01:26;101099.84;;;20.13;100.00
71165;BME280;58859;55.132;-1.586;2023-07-20T03:03:54;101106.88;;;19.93;100.00
71165;BME280;58859;55.132;-1.586;2023-07-20T03:06:19;101110.69;;;18.60;100.00
71165;BME280;58859;55.132;-1.586;2023-07-20T03:08:45;101112.94;;;19.39;100.00
71165;BME280;58859;55.132;-1.586;2023-07-20T03:11:13;101109.59;;;18.97;100.00
71165;BME280;58859;55.132;-1.586;2023-07-20T03:13:40;101102.97;;;18.37;100.00
71165;BME280;58859;55.132;-1.586;2023-07-20T03:16:06;101104.09;;;19.54;100.00
71165;BME280;58859;55.132;-1.586;2023-07-20T03:18:39;101106.53;;;19.55;100.00
71165;BME280;58859;55.132;-1.586;2023-07-20T03:21:07;101109.66;;;18.18;100.00
71165;BME280;58859;55.132;-1.586;2023-07-20T03:23:32;101107.09;;;18.25;100.00
71165;BME280;58859;55.132;-1.586;2023-07-20T03:25:58;101110.56;;;19.51;100.00
71165;BME280;58859;55.132;-1.586;2023-07-20T03:28:23;101106.59;;;19.34;100.00
71165;BME280;58859;55.132;-1.586;2023-07-20T03:30:58;101100.34;;;19.82;100.00
71165;BME280;58859;55.132;-1.586;2023-07-20T03:33:28;101109.69;;;19.85;100.00
71165;BME280;58859;55.132;-1.586;2023-07-20T03:35:54;101106.78;;;17.34;100.00
71165;BME280;58859;55.132;-1.586;2023-07-20T03:38:20;101119.31;;;15.57;100.00
71165;BME280;58859;55.132;-1.586;2023-07-20T03:43:18;101119.84;;;16.44;100.00
71165;BME280;58859;55.132;-1.586;2023-07-20T03:45:44;101117.97;;;16.30;100.00
71165;BME280;58859;55.132;-1.586;2023-07-20T03:48:11;101110.59;;;16.56;100.00
71165;BME280;58859;55.132;-1.586;2023-07-20T03:50:37;101108.03;;;16.71;100.00
71165;BME280;58859;55.132;-1.586;2023-07-20T03:53:02;101110.16;;;15.91;100.00
71165;BME280;58859;55.132;-1.586;2023-07-20T03:55:28;101108.66;;;16.50;100.00
71165;BME280;58859;55.132;-1.586;2023-07-20T03:57:53;101108.38;;;16.45;100.00
71165;BME280;58859;55.132;-1.586;2023-07-20T04:00:18;101098.38;;;16.63;100.00
71165;BME280;58859;55.132;-1.586;2023-07-20T04:02:44;101107.06;;;15.88;100.00
71165;BME280;58859;55.132;-1.586;2023-07-20T04:05:09;101103.75;;;17.80;100.00
71165;BME280;58859;55.132;-1.586;2023-07-20T04:07:35;101090.59;;;18.80;100.00
71165;BME280;58859;55.132;-1.586;2023-07-20T04:10:00;101096.75;;;19.15;100.00
71165;BME280;58859;55.132;-1.586;2023-07-20T04:12:26;101101.22;;;19.48;100.00
71165;BME280;58859;55.132;-1.586;2023-07-20T04:14:51;101101.66;;;19.59;100.00
71165;BME280;58859;55.132;-1.586;2023-07-20T04:17:17;101109.38;;;16.67;100.00
71165;BME280;58859;55.132;-1.586;2023-07-20T04:19:43;101102.56;;;17.83;100.00
71165;BME280;58859;55.132;-1.586;2023-07-20T04:22:08;101108.66;;;16.73;100.00
71165;BME280;58859;55.132;-1.586;2023-07-20T04:24:34;101112.88;;;15.67;100.00
71165;BME280;58859;55.132;-1.586;2023-07-20T04:26:59;101115.66;;;14.94;100.00
71165;BME280;58859;55.132;-1.586;2023-07-20T04:29:24;101116.13;;;16.39;100.00
71165;BME280;58859;55.132;-1.586;2023-07-20T04:31:50;101110.75;;;15.71;100.00
71165;BME280;58859;55.132;-1.586;2023-07-20T04:34:16;101112.22;;;16.57;100.00
71165;BME280;58859;55.132;-1.586;2023-07-20T04:36:41;101113.56;;;16.76;100.00
71165;BME280;58859;55.132;-1.586;2023-07-20T04:39:06;101111.31;;;16.20;100.00
71165;BME280;58859;55.132;-1.586;2023-07-20T04:41:33;101106.09;;;16.65;100.00
71165;BME280;58859;55.132;-1.586;2023-07-20T04:43:59;101111.72;;;16.62;100.00
71165;BME280;58859;55.132;-1.586;2023-07-20T04:46:24;101110.81;;;16.70;100.00
71165;BME280;58859;55.132;-1.586;2023-07-20T04:48:50;101115.34;;;16.53;100.00
71165;BME280;58859;55.132;-1.586;2023-07-20T04:51:15;101101.88;;;17.31;100.00
71165;BME280;58859;55.132;-1.586;2023-07-20T04:53:42;101097.81;;;16.76;100.00
71165;BME280;58859;55.132;-1.586;2023-07-20T04:56:08;101099.00;;;16.88;100.00
71165;BME280;58859;55.132;-1.586;2023-07-20T04:58:33;101103.78;;;16.17;100.00
71165;BME280;58859;55.132;-1.586;2023-07-20T05:01:00;101104.88;;;17.28;100.00
71165;BME280;58859;55.132;-1.586;2023-07-20T05:03:25;101098.06;;;17.48;100.00
71165;BME280;58859;55.132;-1.586;2023-07-20T05:05:51;101099.25;;;16.79;100.00
71165;BME280;58859;55.132;-1.586;2023-07-20T05:08:17;101109.84;;;15.94;100.00
71165;BME280;58859;55.132;-1.586;2023-07-20T05:10:42;101114.06;;;16.26;100.00
71165;BME280;58859;55.132;-1.586;2023-07-20T05:13:07;101112.56;;;17.29;100.00
71165;BME280;58859;55.132;-1.586;2023-07-20T05:15:33;101107.59;;;16.82;100.00
71165;BME280;58859;55.132;-1.586;2023-07-20T05:18:00;101109.22;;;17.50;100.00
71165;BME280;58859;55.132;-1.586;2023-07-20T05:20:26;101102.97;;;17.51;100.00
71165;BME280;58859;55.132;-1.586;2023-07-20T05:22:52;101105.94;;;17.62;100.00
71165;BME280;58859;55.132;-1.586;2023-07-20T05:25:18;101096.22;;;17.04;100.00
71165;BME280;58859;55.132;-1.586;2023-07-20T05:27:44;101104.91;;;18.07;100.00
71165;BME280;58859;55.132;-1.586;2023-07-20T05:30:10;101112.59;;;16.92;100.00
71165;BME280;58859;55.132;-1.586;2023-07-20T05:32:36;101109.22;;;16.83;100.00
71165;BME280;58859;55.132;-1.586;2023-07-20T05:35:01;101110.28;;;16.29;100.00
71165;BME280;58859;55.132;-1.586;2023-07-20T05:37:27;101108.47;;;17.27;100.00
71165;BME280;58859;55.132;-1.586;2023-07-20T05:39:52;101099.41;;;17.14;100.00
71165;BME280;58859;55.132;-1.586;2023-07-20T05:42:17;101106.88;;;17.69;100.00
71165;BME280;58859;55.132;-1.586;2023-07-20T05:44:43;101107.75;;;17.33;100.00
71165;BME280;58859;55.132;-1.586;2023-07-20T05:47:08;101106.94;;;17.91;100.00
71165;BME280;58859;55.132;-1.586;2023-07-20T05:49:34;101114.38;;;19.14;100.00
71165;BME280;58859;55.132;-1.586;2023-07-20T05:52:00;101114.56;;;18.85;100.00
71165;BME280;58859;55.132;-1.586;2023-07-20T05:54:26;101116.03;;;18.66;100.00
71165;BME280;58859;55.132;-1.586;2023-07-20T05:56:52;101112.88;;;18.35;100.00
71165;BME280;58859;55.132;-1.586;2023-07-20T05:59:17;101115.72;;;17.83;100.00
71165;BME280;58859;55.132;-1.586;2023-07-20T06:01:46;101118.59;;;19.09;100.00
71165;BME280;58859;55.132;-1.586;2023-07-20T06:04:15;101113.13;;;18.19;100.00
71165;BME280;58859;55.132;-1.586;2023-07-20T06:06:40;101111.47;;;19.37;100.00
71165;BME280;58859;55.132;-1.586;2023-07-20T06:09:06;101108.38;;;19.27;100.00
71165;BME280;58859;55.132;-1.586;2023-07-20T06:11:35;101105.59;;;19.35;100.00
71165;BME280;58859;55.132;-1.586;2023-07-20T06:14:00;101120.75;;;18.50;100.00
71165;BME280;58859;55.132;-1.586;2023-07-20T06:16:26;101115.81;;;19.17;100.00
71165;BME280;58859;55.132;-1.586;2023-07-20T06:18:55;101111.94;;;19.40;100.00
71165;BME280;58859;55.132;-1.586;2023-07-20T06:21:20;101117.66;;;19.50;100.00
71165;BME280;58859;55.132;-1.586;2023-07-20T06:23:46;101113.59;;;19.89;100.00
71165;BME280;58859;55.132;-1.586;2023-07-20T06:26:11;101113.69;;;19.33;100.00
71165;BME280;58859;55.132;-1.586;2023-07-20T06:28:36;101109.72;;;19.98;100.00
71165;BME280;58859;55.132;-1.586;2023-07-20T06:31:03;101104.56;;;19.70;100.00
71165;BME280;58859;55.132;-1.586;2023-07-20T06:33:29;101106.88;;;19.93;100.00
71165;BME280;58859;55.132;-1.586;2023-07-20T06:35:54;101111.56;;;19.50;100.00
71165;BME280;58859;55.132;-1.586;2023-07-20T06:38:22;101112.63;;;20.03;100.00
71165;BME280;58859;55.132;-1.586;2023-07-20T06:40:49;101107.69;;;19.93;100.00
71165;BME280;58859;55.132;-1.586;2023-07-20T06:43:14;101108.28;;;20.56;100.00
71165;BME280;58859;55.132;-1.586;2023-07-20T06:45:40;101108.25;;;20.69;100.00
71165;BME280;58859;55.132;-1.586;2023-07-20T06:48:06;101113.97;;;20.79;100.00
71165;BME280;58859;55.132;-1.586;2023-07-20T06:50:31;101102.56;;;21.05;100.00
71165;BME280;58859;55.132;-1.586;2023-07-20T06:52:57;101105.97;;;21.45;100.00
71165;BME280;58859;55.132;-1.586;2023-07-20T06:55:24;101104.97;;;21.33;100.00
71165;BME280;58859;55.132;-1.586;2023-07-20T06:57:49;101101.28;;;21.47;100.00
71165;BME280;58859;55.132;-1.586;2023-07-20T07:00:15;101109.06;;;21.86;100.00
71165;BME280;58859;55.132;-1.586;2023-07-20T07:02:40;101103.84;;;21.66;100.00
71165;BME280;58859;55.132;-1.586;2023-07-20T07:05:06;101112.03;;;21.65;100.00
71165;BME280;58859;55.132;-1.586;2023-07-20T07:07:31;101103.13;;;22.35;100.00
71165;BME280;58859;55.132;-1.586;2023-07-20T07:09:57;101104.25;;;22.46;100.00
71165;BME280;58859;55.132;-1.586;2023-07-20T07:12:22;101101.69;;;22.88;100.00
71165;BME280;58859;55.132;-1.586;2023-07-20T07:14:48;101102.16;;;22.54;100.00
71165;BME280;58859;55.132;-1.586;2023-07-20T07:17:13;101108.53;;;22.78;100.00
71165;BME280;58859;55.132;-1.586;2023-07-20T07:19:39;101107.63;;;23.09;100.00
71165;BME280;58859;55.132;-1.586;2023-07-20T07:22:06;101106.41;;;22.62;100.00
71165;BME280;58859;55.132;-1.586;2023-07-20T07:24:31;101110.44;;;23.14;100.00
71165;BME280;58859;55.132;-1.586;2023-07-20T07:27:02;101108.78;;;23.56;100.00
71165;BME280;58859;55.132;-1.586;2023-07-20T07:29:29;101121.34;;;23.67;100.00
71165;BME280;58859;55.132;-1.586;2023-07-20T07:31:54;101115.88;;;23.01;100.00
71165;BME280;58859;55.132;-1.586;2023-07-20T07:34:20;101119.78;;;22.98;100.00
71165;BME280;58859;55.132;-1.586;2023-07-20T07:36:45;101119.13;;;22.22;100.00
71165;BME280;58859;55.132;-1.586;2023-07-20T07:39:11;101128.53;;;22.74;100.00
71165;BME280;58859;55.132;-1.586;2023-07-20T07:41:36;101124.97;;;22.62;100.00
71165;BME280;58859;55.132;-1.586;2023-07-20T07:44:02;101126.53;;;21.43;100.00
71165;BME280;58859;55.132;-1.586;2023-07-20T07:46:27;101126.69;;;22.12;100.00
71165;BME280;58859;55.132;-1.586;2023-07-20T07:48:53;101128.88;;;22.84;100.00
71165;BME280;58859;55.132;-1.586;2023-07-20T07:51:18;101129.09;;;23.07;100.00
71165;BME280;58859;55.132;-1.586;2023-07-20T07:53:45;101123.31;;;23.71;100.00
71165;BME280;58859;55.132;-1.586;2023-07-20T07:56:11;101127.50;;;23.79;100.00
71165;BME280;58859;55.132;-1.586;2023-07-20T07:58:36;101137.63;;;24.18;100.00
71165;BME280;58859;55.132;-1.586;2023-07-20T08:01:02;101124.16;;;21.92;100.00
71165;BME280;58859;55.132;-1.586;2023-07-20T08:03:28;101126.38;;;21.95;100.00
71165;BME280;58859;55.132;-1.586;2023-07-20T08:05:56;101129.75;;;22.47;100.00
71165;BME280;58859;55.132;-1.586;2023-07-20T08:08:22;101131.28;;;22.61;100.00
71165;BME280;58859;55.132;-1.586;2023-07-20T08:10:48;101135.03;;;22.15;100.00
71165;BME280;58859;55.132;-1.586;2023-07-20T08:13:13;101132.47;;;22.65;100.00
71165;BME280;58859;55.132;-1.586;2023-07-20T08:15:41;101134.75;;;21.92;100.00
71165;BME280;58859;55.132;-1.586;2023-07-20T08:18:07;101128.59;;;22.36;100.00
71165;BME280;58859;55.132;-1.586;2023-07-20T08:20:33;101130.13;;;22.50;100.00
71165;BME280;58859;55.132;-1.586;2023-07-20T08:23:01;101135.28;;;22.07;100.00
71165;BME280;58859;55.132;-1.586;2023-07-20T08:25:26;101119.72;;;22.49;100.00
71165;BME280;58859;55.132;-1.586;2023-07-20T08:27:51;101145.69;;;20.92;100.00
71165;BME280;58859;55.132;-1.586;2023-07-20T08:30:17;101143.25;;;20.97;100.00
71165;BME280;58859;55.132;-1.586;2023-07-20T08:32:42;101143.25;;;21.24;100.00
71165;BME280;58859;55.132;-1.586;2023-07-20T08:35:08;101140.44;;;21.83;100.00
71165;BME280;58859;55.132;-1.586;2023-07-20T08:37:34;101132.00;;;22.12;100.00
71165;BME280;58859;55.132;-1.586;2023-07-20T08:39:59;101141.69;;;21.93;100.00
71165;BME280;58859;55.132;-1.586;2023-07-20T08:42:25;101137.34;;;21.35;100.00
71165;BME280;58859;55.132;-1.586;2023-07-20T08:44:52;101134.09;;;21.97;100.00
71165;BME280;58859;55.132;-1.586;2023-07-20T08:47:18;101137.25;;;22.18;100.00
71165;BME280;58859;55.132;-1.586;2023-07-20T08:49:48;101138.19;;;21.86;100.00
71165;BME280;58859;55.132;-1.586;2023-07-20T08:52:13;101136.69;;;21.52;100.00
71165;BME280;58859;55.132;-1.586;2023-07-20T08:54:40;101138.03;;;21.88;100.00
71165;BME280;58859;55.132;-1.586;2023-07-20T08:57:06;101132.88;;;21.99;100.00
71165;BME280;58859;55.132;-1.586;2023-07-20T08:59:34;101139.22;;;21.92;100.00
71165;BME280;58859;55.132;-1.586;2023-07-20T09:02:02;101138.03;;;21.81;100.00
71165;BME280;58859;55.132;-1.586;2023-07-20T09:04:29;101142.72;;;22.30;100.00
71165;BME280;58859;55.132;-1.586;2023-07-20T09:06:54;101137.91;;;21.50;100.00
71165;BME280;58859;55.132;-1.586;2023-07-20T09:09:20;101145.50;;;20.87;100.00
71165;BME280;58859;55.132;-1.586;2023-07-20T09:11:48;101142.88;;;21.13;100.00
71165;BME280;58859;55.132;-1.586;2023-07-20T09:14:13;101146.66;;;21.57;100.00
71165;BME280;58859;55.132;-1.586;2023-07-20T09:16:51;101136.50;;;22.43;100.00
71165;BME280;58859;55.132;-1.586;2023-07-20T09:19:17;101131.75;;;22.20;100.00
71165;BME280;58859;55.132;-1.586;2023-07-20T09:21:50;101133.25;;;22.03;100.00
71165;BME280;58859;55.132;-1.586;2023-07-20T09:24:17;101134.50;;;21.03;100.00
71165;BME280;58859;55.132;-1.586;2023-07-20T09:26:44;101140.19;;;21.20;100.00
71165;BME280;58859;55.132;-1.586;2023-07-20T09:29:11;101142.91;;;21.77;100.00
71165;BME280;58859;55.132;-1.586;2023-07-20T09:31:37;101137.28;;;22.50;100.00
71165;BME280;58859;55.132;-1.586;2023-07-20T09:34:02;101138.84;;;22.88;100.00
71165;BME280;58859;55.132;-1.586;2023-07-20T09:36:33;101128.28;;;23.07;100.00
71165;BME280;58859;55.132;-1.586;2023-07-20T09:38:59;101140.16;;;23.47;100.00
71165;BME280;58859;55.132;-1.586;2023-07-20T09:41:25;101143.09;;;23.75;100.00
71165;BME280;58859;55.132;-1.586;2023-07-20T09:43:52;101139.66;;;22.58;100.00
71165;BME280;58859;55.132;-1.586;2023-07-20T09:46:18;101139.31;;;23.65;100.00
71165;BME280;58859;55.132;-1.586;2023-07-20T09:48:52;101139.75;;;23.62;100.00
71165;BME280;58859;55.132;-1.586;2023-07-20T09:51:19;101134.53;;;24.21;100.00
71165;BME280;58859;55.132;-1.586;2023-07-20T09:53:47;101142.84;;;22.42;100.00
71165;BME280;58859;55.132;-1.586;2023-07-20T09:56:15;101135.22;;;22.20;100.00
71165;BME280;58859;55.132;-1.586;2023-07-20T09:58:43;101127.91;;;23.46;100.00
71165;BME280;58859;55.132;-1.586;2023-07-20T10:01:11;101124.44;;;23.45;100.00
71165;BME280;58859;55.132;-1.586;2023-07-20T10:03:41;101128.47;;;23.30;100.00
71165;BME280;58859;55.132;-1.586;2023-07-20T10:06:13;101133.56;;;22.51;100.00
71165;BME280;58859;55.132;-1.586;2023-07-20T10:08:41;101130.13;;;22.19;100.00
71165;BME280;58859;55.132;-1.586;2023-07-20T10:11:08;101134.03;;;21.52;100.00
71165;BME280;58859;55.132;-1.586;2023-07-20T10:13:38;101133.44;;;21.57;100.00
71165;BME280;58859;55.132;-1.586;2023-07-20T10:16:28;101130.47;;;22.60;100.00
71165;BME280;58859;55.132;-1.586;2023-07-20T10:21:21;101122.06;;;22.63;100.00
71165;BME280;58859;55.132;-1.586;2023-07-20T10:23:50;101118.72;;;22.18;100.00
71165;BME280;58859;55.132;-1.586;2023-07-20T10:26:15;101126.38;;;21.95;100.00
71165;BME280;58859;55.132;-1.586;2023-07-20T10:28:41;101120.66;;;23.10;100.00
71165;BME280;58859;55.132;-1.586;2023-07-20T10:31:12;101125.00;;;23.84;100.00
71165;BME280;58859;55.132;-1.586;2023-07-20T10:33:38;101118.69;;;22.25;100.00
71165;BME280;58859;55.132;-1.586;2023-07-20T10:36:05;101117.44;;;23.08;100.00
71165;BME280;58859;55.132;-1.586;2023-07-20T10:38:42;101123.00;;;23.79;100.00
71165;BME280;58859;55.132;-1.586;2023-07-20T10:41:33;101114.00;;;24.28;100.00
71165;BME280;58859;55.132;-1.586;2023-07-20T10:44:04;101102.63;;;25.32;100.00
71165;BME280;58859;55.132;-1.586;2023-07-20T10:49:06;101106.81;;;23.69;100.00
71165;BME280;58859;55.132;-1.586;2023-07-20T10:51:48;101092.34;;;26.04;100.00
71165;BME280;58859;55.132;-1.586;2023-07-20T10:56:51;101093.22;;;26.21;100.00
71165;BME280;58859;55.132;-1.586;2023-07-20T10:59:36;101095.84;;;26.33;100.00
71165;BME280;58859;55.132;-1.586;2023-07-20T11:02:06;101091.47;;;26.93;100.00
71165;BME280;58859;55.132;-1.586;2023-07-20T11:04:43;101075.72;;;26.58;100.00
71165;BME280;58859;55.132;-1.586;2023-07-20T11:07:09;101080.44;;;25.66;100.00
71165;BME280;58859;55.132;-1.586;2023-07-20T11:09:35;101082.75;;;24.77;100.00
71165;BME280;58859;55.132;-1.586;2023-07-20T11:12:12;101078.84;;;25.94;100.00
71165;BME280;58859;55.132;-1.586;2023-07-20T11:14:54;101088.72;;;26.10;100.00
71165;BME280;58859;55.132;-1.586;2023-07-20T11:17:28;101089.69;;;24.66;100.00
71165;BME280;58859;55.132;-1.586;2023-07-20T11:19:58;101096.25;;;23.63;100.00
71165;BME280;58859;55.132;-1.586;2023-07-20T11:22:26;101096.59;;;22.31;100.00
71165;BME280;58859;55.132;-1.586;2023-07-20T11:24:55;101096.88;;;21.85;100.00
71165;BME280;58859;55.132;-1.586;2023-07-20T11:27:20;101096.13;;;22.41;100.00
71165;BME280;58859;55.132;-1.586;2023-07-20T11:29:48;101099.19;;;22.44;100.00
71165;BME280;58859;55.132;-1.586;2023-07-20T11:32:23;101107.66;;;21.77;100.00
71165;BME280;58859;55.132;-1.586;2023-07-20T11:34:49;101109.31;;;21.78;100.00
71165;BME280;58859;55.132;-1.586;2023-07-20T11:37:15;101102.94;;;20.30;100.00
71165;BME280;58859;55.132;-1.586;2023-07-20T11:39:41;101101.06;;;20.11;100.00
71165;BME280;58859;55.132;-1.586;2023-07-20T11:42:07;101087.13;;;21.08;100.00
71165;BME280;58859;55.132;-1.586;2023-07-20T11:44:33;101077.97;;;20.91;100.00
71165;BME280;58859;55.132;-1.586;2023-07-20T11:47:09;101086.75;;;22.13;100.00
71165;BME280;58859;55.132;-1.586;2023-07-20T11:49:39;101087.53;;;21.76;100.00
71165;BME280;58859;55.132;-1.586;2023-07-20T11:52:10;101086.06;;;22.24;100.00
71165;BME280;58859;55.132;-1.586;2023-07-20T11:54:37;101085.84;;;22.51;100.00
71165;BME280;58859;55.132;-1.586;2023-07-20T11:57:03;101085.88;;;21.24;100.00
71165;BME280;58859;55.132;-1.586;2023-07-20T11:59:30;101077.63;;;21.58;100.00
71165;BME280;58859;55.132;-1.586;2023-07-20T12:01:57;101081.41;;;21.05;100.00
71165;BME280;58859;55.132;-1.586;2023-07-20T12:04:23;101082.25;;;20.73;100.00
71165;BME280;58859;55.132;-1.586;2023-07-20T12:06:48;101090.16;;;20.40;100.00
71165;BME280;58859;55.132;-1.586;2023-07-20T12:09:16;101077.69;;;21.45;100.00
71165;BME280;58859;55.132;-1.586;2023-07-20T12:11:43;101076.97;;;20.86;100.00
71165;BME280;58859;55.132;-1.586;2023-07-20T12:14:09;101071.44;;;21.00;100.00
71165;BME280;58859;55.132;-1.586;2023-07-20T12:16:36;101070.25;;;21.67;100.00
71165;BME280;58859;55.132;-1.586;2023-07-20T12:19:06;101069.81;;;21.12;100.00
71165;BME280;58859;55.132;-1.586;2023-07-20T12:21:34;101071.69;;;20.79;100.00
71165;BME280;58859;55.132;-1.586;2023-07-20T12:24:02;101073.81;;;21.35;100.00
71165;BME280;58859;55.132;-1.586;2023-07-20T12:26:29;101067.88;;;22.28;100.00
71165;BME280;58859;55.132;-1.586;2023-07-20T12:28:55;101079.34;;;21.84;100.00
71165;BME280;58859;55.132;-1.586;2023-07-20T12:31:21;101074.72;;;22.11;100.00
71165;BME280;58859;55.132;-1.586;2023-07-20T12:33:48;101080.78;;;21.23;100.00
71165;BME280;58859;55.132;-1.586;2023-07-20T12:36:14;101073.06;;;21.14;100.00
71165;BME280;58859;55.132;-1.586;2023-07-20T12:38:40;101070.56;;;21.33;100.00
71165;BME280;58859;55.132;-1.586;2023-07-20T12:41:07;101065.75;;;20.84;100.00
71165;BME280;58859;55.132;-1.586;2023-07-20T12:43:33;101075.94;;;20.67;100.00
71165;BME280;58859;55.132;-1.586;2023-07-20T12:45:59;101077.63;;;21.58;100.00
71165;BME280;58859;55.132;-1.586;2023-07-20T12:48:24;101087.94;;;20.56;100.00
71165;BME280;58859;55.132;-1.586;2023-07-20T12:50:50;101081.94;;;21.46;100.00
71165;BME280;58859;55.132;-1.586;2023-07-20T12:53:16;101077.28;;;22.80;100.00